sensor_id;sensor_type;location;lat;lon;timestamp;temperature;humidity
37956;DHT22;23776;51.592;7.180;2023-08-30T00:00:39;15.60;99.90
37956;DHT22;23776;51.592;7.180;2023-08-30T00:03:04;16.40;1.00
37956;DHT22;23776;51.592;7.180;2023-08-30T00:05:31;15.50;1.00
37956;DHT22;23776;51.592;7.180;2023-08-30T00:07:57;15.50;1.00
37956;DHT22;23776;51.592;7.180;2023-08-30T00:10:23;15.50;33.30
37956;DHT22;23776;51.592;7.180;2023-08-30T00:12:48;15.60;57.00
37956;DHT22;23776;51.592;7.180;2023-08-30T00:15:14;15.50;60.50
37956;DHT22;23776;51.592;7.180;2023-08-30T00:17:40;15.40;99.90
37956;DHT22;23776;51.592;7.180;2023-08-30T00:20:06;15.40;99.90
37956;DHT22;23776;51.592;7.180;2023-08-30T00:22:32;15.50;99.90
37956;DHT22;23776;51.592;7.180;2023-08-30T00:24:58;15.60;99.90
37956;DHT22;23776;51.592;7.180;2023-08-30T00:27:23;15.50;99.90
37956;DHT22;23776;51.592;7.180;2023-08-30T00:29:49;15.80;99.90
37956;DHT22;23776;51.592;7.180;2023-08-30T00:32:15;15.50;99.90
37956;DHT22;23776;51.592;7.180;2023-08-30T00:34:40;15.70;99.90
37956;DHT22;23776;51.592;7.180;2023-08-30T00:37:06;15.40;99.90
37956;DHT22;23776;51.592;7.180;2023-08-30T00:39:31;15.20;99.90
37956;DHT22;23776;51.592;7.180;2023-08-30T00:41:57;15.10;99.90
37956;DHT22;23776;51.592;7.180;2023-08-30T00:44:22;15.10;99.90
37956;DHT22;23776;51.592;7.180;2023-08-30T00:46:48;15.10;99.90
37956;DHT22;23776;51.592;7.180;2023-08-30T00:49:14;15.00;99.90
37956;DHT22;23776;51.592;7.180;2023-08-30T00:51:40;15.00;99.90
37956;DHT22;23776;51.592;7.180;2023-08-30T00:54:06;15.00;99.90
37956;DHT22;23776;51.592;7.180;2023-08-30T00:56:32;15.00;99.90
37956;DHT22;23776;51.592;7.180;2023-08-30T00:58:59;15.10;99.90
37956;DHT22;23776;51.592;7.180;2023-08-30T01:01:25;14.80;99.90
37956;DHT22;23776;51.592;7.180;2023-08-30T01:03:51;14.70;99.90
37956;DHT22;23776;51.592;7.180;2023-08-30T01:06:16;14.60;99.90
37956;DHT22;23776;51.592;7.180;2023-08-30T01:08:43;14.70;99.90
37956;DHT22;23776;51.592;7.180;2023-08-30T01:14:07;14.40;99.90
37956;DHT22;23776;51.592;7.180;2023-08-30T01:16:35;14.40;99.90
37956;DHT22;23776;51.592;7.180;2023-08-30T01:19:04;14.40;99.90
37956;DHT22;23776;51.592;7.180;2023-08-30T01:21:43;14.40;99.90
37956;DHT22;23776;51.592;7.180;2023-08-30T01:24:23;14.40;99.90
37956;DHT22;23776;51.592;7.180;2023-08-30T01:27:12;14.40;99.90
37956;DHT22;23776;51.592;7.180;2023-08-30T01:29:40;14.40;99.90
37956;DHT22;23776;51.592;7.180;2023-08-30T01:32:09;14.40;99.90
37956;DHT22;23776;51.592;7.180;2023-08-30T01:34:37;14.50;99.90
37956;DHT22;23776;51.592;7.180;2023-08-30T01:37:05;14.40;99.90
37956;DHT22;23776;51.592;7.180;2023-08-30T01:39:32;14.40;99.90
37956;DHT22;23776;51.592;7.180;2023-08-30T01:41:58;14.40;99.90
37956;DHT22;23776;51.592;7.180;2023-08-30T01:44:30;14.60;99.90
37956;DHT22;23776;51.592;7.180;2023-08-30T01:46:57;14.30;99.90
37956;DHT22;23776;51.592;7.180;2023-08-30T01:49:24;14.30;99.90
37956;DHT22;23776;51.592;7.180;2023-08-30T01:51:51;14.20;99.90
37956;DHT22;23776;51.592;7.180;2023-08-30T01:54:18;14.10;99.90
37956;DHT22;23776;51.592;7.180;2023-08-30T01:56:45;14.50;99.90
37956;DHT22;23776;51.592;7.180;2023-08-30T01:59:11;14.10;99.90
37956;DHT22;23776;51.592;7.180;2023-08-30T02:01:37;14.00;99.90
37956;DHT22;23776;51.592;7.180;2023-08-30T02:04:03;14.00;99.90
37956;DHT22;23776;51.592;7.180;2023-08-30T02:09:08;14.00;99.90
37956;DHT22;23776;51.592;7.180;2023-08-30T02:11:35;13.90;99.90
37956;DHT22;23776;51.592;7.180;2023-08-30T02:14:04;13.90;99.90
37956;DHT22;23776;51.592;7.180;2023-08-30T02:16:32;14.00;99.90
37956;DHT22;23776;51.592;7.180;2023-08-30T02:18:58;13.90;99.90
37956;DHT22;23776;51.592;7.180;2023-08-30T02:21:24;13.80;99.90
37956;DHT22;23776;51.592;7.180;2023-08-30T02:23:53;13.80;99.90
37956;DHT22;23776;51.592;7.180;2023-08-30T02:26:19;13.90;99.90
37956;DHT22;23776;51.592;7.180;2023-08-30T02:28:45;14.20;99.90
37956;DHT22;23776;51.592;7.180;2023-08-30T02:31:11;13.80;99.90
37956;DHT22;23776;51.592;7.180;2023-08-30T02:33:36;13.90;99.90
37956;DHT22;23776;51.592;7.180;2023-08-30T02:36:05;13.80;99.90
37956;DHT22;23776;51.592;7.180;2023-08-30T02:38:31;13.80;99.90
37956;DHT22;23776;51.592;7.180;2023-08-30T02:40:56;13.90;99.90
37956;DHT22;23776;51.592;7.180;2023-08-30T02:43:22;13.80;99.90
37956;DHT22;23776;51.592;7.180;2023-08-30T02:45:48;13.80;99.90
37956;DHT22;23776;51.592;7.180;2023-08-30T02:48:14;13.90;99.90
37956;DHT22;23776;51.592;7.180;2023-08-30T02:50:40;13.90;99.90
37956;DHT22;23776;51.592;7.180;2023-08-30T02:53:05;13.90;99.90
37956;DHT22;23776;51.592;7.180;2023-08-30T02:55:34;14.00;99.90
37956;DHT22;23776;51.592;7.180;2023-08-30T02:57:59;14.00;99.90
37956;DHT22;23776;51.592;7.180;2023-08-30T03:00:25;13.90;99.90
37956;DHT22;23776;51.592;7.180;2023-08-30T03:02:51;13.90;99.90
37956;DHT22;23776;51.592;7.180;2023-08-30T03:05:17;14.80;99.90
37956;DHT22;23776;51.592;7.180;2023-08-30T03:07:42;14.30;99.90
37956;DHT22;23776;51.592;7.180;2023-08-30T03:10:09;13.70;99.90
37956;DHT22;23776;51.592;7.180;2023-08-30T03:12:34;13.70;99.90
37956;DHT22;23776;51.592;7.180;2023-08-30T03:15:00;13.80;99.90
37956;DHT22;23776;51.592;7.180;2023-08-30T03:17:26;13.70;99.90
37956;DHT22;23776;51.592;7.180;2023-08-30T03:19:52;13.80;99.90
37956;DHT22;23776;51.592;7.180;2023-08-30T03:22:20;13.70;99.90
37956;DHT22;23776;51.592;7.180;2023-08-30T03:24:46;13.70;99.90
37956;DHT22;23776;51.592;7.180;2023-08-30T03:27:11;13.70;99.90
37956;DHT22;23776;51.592;7.180;2023-08-30T03:29:37;13.70;99.90
37956;DHT22;23776;51.592;7.180;2023-08-30T03:32:03;13.80;99.90
37956;DHT22;23776;51.592;7.180;2023-08-30T03:34:28;13.60;99.90
37956;DHT22;23776;51.592;7.180;2023-08-30T03:36:54;13.70;99.90
37956;DHT22;23776;51.592;7.180;2023-08-30T03:39:20;13.60;99.90
37956;DHT22;23776;51.592;7.180;2023-08-30T03:41:46;13.50;99.90
37956;DHT22;23776;51.592;7.180;2023-08-30T03:44:12;13.50;99.90
37956;DHT22;23776;51.592;7.180;2023-08-30T03:46:37;14.40;99.90
37956;DHT22;23776;51.592;7.180;2023-08-30T03:49:03;13.40;99.90
37956;DHT22;23776;51.592;7.180;2023-08-30T03:51:29;13.40;99.90
37956;DHT22;23776;51.592;7.180;2023-08-30T03:53:55;13.40;99.90
37956;DHT22;23776;51.592;7.180;2023-08-30T03:56:22;13.30;99.90
37956;DHT22;23776;51.592;7.180;2023-08-30T03:58:48;13.40;99.90
37956;DHT22;23776;51.592;7.180;2023-08-30T04:01:14;13.40;99.90
37956;DHT22;23776;51.592;7.180;2023-08-30T04:03:39;13.30;99.90
37956;DHT22;23776;51.592;7.180;2023-08-30T04:06:05;15.20;99.90
37956;DHT22;23776;51.592;7.180;2023-08-30T04:08:31;13.80;99.90
37956;DHT22;23776;51.592;7.180;2023-08-30T04:10:57;13.30;99.90
37956;DHT22;23776;51.592;7.180;2023-08-30T04:13:23;13.30;99.90
37956;DHT22;23776;51.592;7.180;2023-08-30T04:15:48;13.30;99.90
37956;DHT22;23776;51.592;7.180;2023-08-30T04:18:14;13.30;99.90
37956;DHT22;23776;51.592;7.180;2023-08-30T04:20:44;13.20;99.90
37956;DHT22;23776;51.592;7.180;2023-08-30T04:23:10;14.30;99.90
37956;DHT22;23776;51.592;7.180;2023-08-30T04:25:36;13.20;99.90
37956;DHT22;23776;51.592;7.180;2023-08-30T04:28:02;14.10;99.90
37956;DHT22;23776;51.592;7.180;2023-08-30T04:30:28;13.30;99.90
37956;DHT22;23776;51.592;7.180;2023-08-30T04:32:54;13.20;99.90
37956;DHT22;23776;51.592;7.180;2023-08-30T04:35:20;13.30;99.90
37956;DHT22;23776;51.592;7.180;2023-08-30T04:37:45;13.20;99.90
37956;DHT22;23776;51.592;7.180;2023-08-30T04:40:11;13.10;99.90
37956;DHT22;23776;51.592;7.180;2023-08-30T04:42:38;14.50;99.90
37956;DHT22;23776;51.592;7.180;2023-08-30T04:45:05;13.10;99.90
37956;DHT22;23776;51.592;7.180;2023-08-30T04:47:32;13.10;99.90
37956;DHT22;23776;51.592;7.180;2023-08-30T04:49:58;13.20;1.00
37956;DHT22;23776;51.592;7.180;2023-08-30T04:52:24;13.10;1.00
37956;DHT22;23776;51.592;7.180;2023-08-30T04:54:50;13.20;1.00
37956;DHT22;23776;51.592;7.180;2023-08-30T04:57:16;13.60;1.00
37956;DHT22;23776;51.592;7.180;2023-08-30T04:59:45;13.00;1.00
37956;DHT22;23776;51.592;7.180;2023-08-30T05:02:11;14.00;1.00
37956;DHT22;23776;51.592;7.180;2023-08-30T05:04:37;14.10;1.00
37956;DHT22;23776;51.592;7.180;2023-08-30T05:07:03;13.00;1.00
37956;DHT22;23776;51.592;7.180;2023-08-30T05:09:32;13.00;1.00
37956;DHT22;23776;51.592;7.180;2023-08-30T05:11:59;13.00;1.00
37956;DHT22;23776;51.592;7.180;2023-08-30T05:14:25;13.00;1.00
37956;DHT22;23776;51.592;7.180;2023-08-30T05:16:51;13.20;1.00
37956;DHT22;23776;51.592;7.180;2023-08-30T05:19:16;13.10;1.00
37956;DHT22;23776;51.592;7.180;2023-08-30T05:21:43;13.20;1.00
37956;DHT22;23776;51.592;7.180;2023-08-30T05:24:08;13.20;1.00
37956;DHT22;23776;51.592;7.180;2023-08-30T05:26:34;13.20;1.00
37956;DHT22;23776;51.592;7.180;2023-08-30T05:29:00;13.20;1.00
37956;DHT22;23776;51.592;7.180;2023-08-30T05:33:51;13.30;1.00
37956;DHT22;23776;51.592;7.180;2023-08-30T05:36:17;13.30;1.00
37956;DHT22;23776;51.592;7.180;2023-08-30T05:38:43;13.20;1.00
37956;DHT22;23776;51.592;7.180;2023-08-30T05:41:09;13.30;1.00
37956;DHT22;23776;51.592;7.180;2023-08-30T05:43:35;13.30;1.00
37956;DHT22;23776;51.592;7.180;2023-08-30T05:46:00;13.40;1.00
37956;DHT22;23776;51.592;7.180;2023-08-30T05:48:29;13.40;1.00
37956;DHT22;23776;51.592;7.180;2023-08-30T05:50:55;13.30;1.00
37956;DHT22;23776;51.592;7.180;2023-08-30T05:53:20;14.00;1.00
37956;DHT22;23776;51.592;7.180;2023-08-30T05:55:46;13.30;1.00
37956;DHT22;23776;51.592;7.180;2023-08-30T05:58:12;13.50;1.00
37956;DHT22;23776;51.592;7.180;2023-08-30T06:00:39;13.50;1.00
37956;DHT22;23776;51.592;7.180;2023-08-30T06:03:04;15.50;1.00
37956;DHT22;23776;51.592;7.180;2023-08-30T06:05:30;13.60;1.00
37956;DHT22;23776;51.592;7.180;2023-08-30T06:07:56;13.60;1.00
37956;DHT22;23776;51.592;7.180;2023-08-30T06:10:23;14.30;1.00
37956;DHT22;23776;51.592;7.180;2023-08-30T06:12:48;13.80;1.00
37956;DHT22;23776;51.592;7.180;2023-08-30T06:15:14;13.80;1.00
37956;DHT22;23776;51.592;7.180;2023-08-30T06:17:40;13.90;1.00
37956;DHT22;23776;51.592;7.180;2023-08-30T06:20:06;14.00;1.00
37956;DHT22;23776;51.592;7.180;2023-08-30T06:22:32;14.00;1.00
37956;DHT22;23776;51.592;7.180;2023-08-30T06:24:57;14.40;1.00
37956;DHT22;23776;51.592;7.180;2023-08-30T06:27:23;14.20;1.00
37956;DHT22;23776;51.592;7.180;2023-08-30T06:29:49;14.30;1.00
37956;DHT22;23776;51.592;7.180;2023-08-30T06:32:16;14.40;1.00
37956;DHT22;23776;51.592;7.180;2023-08-30T06:34:42;14.50;1.00
37956;DHT22;23776;51.592;7.180;2023-08-30T06:37:08;14.80;1.00
37956;DHT22;23776;51.592;7.180;2023-08-30T06:39:34;15.00;1.00
37956;DHT22;23776;51.592;7.180;2023-08-30T06:42:00;14.60;1.00
37956;DHT22;23776;51.592;7.180;2023-08-30T06:44:26;14.80;1.00
37956;DHT22;23776;51.592;7.180;2023-08-30T06:46:52;14.80;1.00
37956;DHT22;23776;51.592;7.180;2023-08-30T06:49:18;14.90;1.00
37956;DHT22;23776;51.592;7.180;2023-08-30T06:51:43;15.10;1.00
37956;DHT22;23776;51.592;7.180;2023-08-30T06:54:09;15.10;1.00
37956;DHT22;23776;51.592;7.180;2023-08-30T06:56:34;15.10;99.90
37956;DHT22;23776;51.592;7.180;2023-08-30T06:59:00;15.30;99.90
37956;DHT22;23776;51.592;7.180;2023-08-30T07:01:25;15.40;99.90
37956;DHT22;23776;51.592;7.180;2023-08-30T07:03:51;15.40;99.90
37956;DHT22;23776;51.592;7.180;2023-08-30T07:06:17;15.50;99.90
37956;DHT22;23776;51.592;7.180;2023-08-30T07:08:42;15.90;75.50
37956;DHT22;23776;51.592;7.180;2023-08-30T07:11:08;15.60;29.70
37956;DHT22;23776;51.592;7.180;2023-08-30T07:13:33;15.80;99.90
37956;DHT22;23776;51.592;7.180;2023-08-30T07:15:59;15.90;99.90
37956;DHT22;23776;51.592;7.180;2023-08-30T07:18:25;16.00;99.90
37956;DHT22;23776;51.592;7.180;2023-08-30T07:20:50;16.30;1.00
37956;DHT22;23776;51.592;7.180;2023-08-30T07:23:16;16.30;99.90
37956;DHT22;23776;51.592;7.180;2023-08-30T07:25:41;16.50;99.90
37956;DHT22;23776;51.592;7.180;2023-08-30T07:28:08;16.50;99.90
37956;DHT22;23776;51.592;7.180;2023-08-30T07:30:34;16.60;1.00
37956;DHT22;23776;51.592;7.180;2023-08-30T07:33:00;16.60;1.00
37956;DHT22;23776;51.592;7.180;2023-08-30T07:35:26;16.70;99.90
37956;DHT22;23776;51.592;7.180;2023-08-30T07:37:51;16.70;99.90
37956;DHT22;23776;51.592;7.180;2023-08-30T07:40:17;16.90;99.90
37956;DHT22;23776;51.592;7.180;2023-08-30T07:42:43;17.00;99.90
37956;DHT22;23776;51.592;7.180;2023-08-30T07:45:08;17.00;99.90
37956;DHT22;23776;51.592;7.180;2023-08-30T07:47:34;17.10;50.30
37956;DHT22;23776;51.592;7.180;2023-08-30T07:50:00;17.20;1.00
37956;DHT22;23776;51.592;7.180;2023-08-30T07:52:26;17.30;99.90
37956;DHT22;23776;51.592;7.180;2023-08-30T07:54:51;17.40;1.00
37956;DHT22;23776;51.592;7.180;2023-08-30T07:57:17;17.40;99.90
37956;DHT22;23776;51.592;7.180;2023-08-30T07:59:42;17.40;99.90
37956;DHT22;23776;51.592;7.180;2023-08-30T08:02:08;17.60;99.90
37956;DHT22;23776;51.592;7.180;2023-08-30T08:04:34;17.60;99.90
37956;DHT22;23776;51.592;7.180;2023-08-30T08:07:00;17.70;29.90
37956;DHT22;23776;51.592;7.180;2023-08-30T08:09:26;17.80;2.10
37956;DHT22;23776;51.592;7.180;2023-08-30T08:11:51;17.90;1.00
37956;DHT22;23776;51.592;7.180;2023-08-30T08:14:17;18.10;99.90
37956;DHT22;23776;51.592;7.180;2023-08-30T08:16:43;18.20;99.90
37956;DHT22;23776;51.592;7.180;2023-08-30T08:19:08;18.30;99.90
37956;DHT22;23776;51.592;7.180;2023-08-30T08:21:34;18.40;99.90
37956;DHT22;23776;51.592;7.180;2023-08-30T08:24:00;18.50;99.90
37956;DHT22;23776;51.592;7.180;2023-08-30T08:26:26;18.50;99.90
37956;DHT22;23776;51.592;7.180;2023-08-30T08:28:54;18.60;99.90
37956;DHT22;23776;51.592;7.180;2023-08-30T08:31:20;18.80;99.90
37956;DHT22;23776;51.592;7.180;2023-08-30T08:33:46;19.00;99.90
37956;DHT22;23776;51.592;7.180;2023-08-30T08:36:11;19.00;51.20
37956;DHT22;23776;51.592;7.180;2023-08-30T08:38:37;19.00;1.00
37956;DHT22;23776;51.592;7.180;2023-08-30T08:41:12;19.20;1.00
37956;DHT22;23776;51.592;7.180;2023-08-30T08:43:38;19.40;1.00
37956;DHT22;23776;51.592;7.180;2023-08-30T08:46:06;19.50;1.00
37956;DHT22;23776;51.592;7.180;2023-08-30T08:48:36;19.60;1.00
37956;DHT22;23776;51.592;7.180;2023-08-30T08:51:05;19.50;1.00
37956;DHT22;23776;51.592;7.180;2023-08-30T08:53:30;19.60;1.00
37956;DHT22;23776;51.592;7.180;2023-08-30T08:55:58;19.70;1.00
37956;DHT22;23776;51.592;7.180;2023-08-30T08:58:24;19.80;1.00
37956;DHT22;23776;51.592;7.180;2023-08-30T09:00:51;19.80;1.00
37956;DHT22;23776;51.592;7.180;2023-08-30T09:03:18;19.80;1.00
37956;DHT22;23776;51.592;7.180;2023-08-30T09:05:44;19.70;1.00
37956;DHT22;23776;51.592;7.180;2023-08-30T09:08:12;19.70;1.00
37956;DHT22;23776;51.592;7.180;2023-08-30T09:10:41;19.70;1.00
37956;DHT22;23776;51.592;7.180;2023-08-30T09:13:06;19.70;1.00
37956;DHT22;23776;51.592;7.180;2023-08-30T09:15:33;19.70;99.90
37956;DHT22;23776;51.592;7.180;2023-08-30T09:17:59;19.70;99.90
37956;DHT22;23776;51.592;7.180;2023-08-30T09:20:25;19.90;99.90
37956;DHT22;23776;51.592;7.180;2023-08-30T09:22:51;19.90;99.90
37956;DHT22;23776;51.592;7.180;2023-08-30T09:25:24;20.10;99.90
37956;DHT22;23776;51.592;7.180;2023-08-30T09:27:50;20.20;99.90
37956;DHT22;23776;51.592;7.180;2023-08-30T09:30:21;20.50;99.90
37956;DHT22;23776;51.592;7.180;2023-08-30T09:32:47;20.80;99.90
37956;DHT22;23776;51.592;7.180;2023-08-30T09:35:13;20.90;99.90
37956;DHT22;23776;51.592;7.180;2023-08-30T09:37:38;21.10;99.90
37956;DHT22;23776;51.592;7.180;2023-08-30T09:40:05;21.10;99.90
37956;DHT22;23776;51.592;7.180;2023-08-30T09:42:31;20.90;99.90
37956;DHT22;23776;51.592;7.180;2023-08-30T09:44:57;20.90;99.90
37956;DHT22;23776;51.592;7.180;2023-08-30T09:47:26;20.80;99.90
37956;DHT22;23776;51.592;7.180;2023-08-30T09:49:55;20.70;99.90
37956;DHT22;23776;51.592;7.180;2023-08-30T09:52:23;20.70;99.90
37956;DHT22;23776;51.592;7.180;2023-08-30T09:54:50;20.40;99.90
37956;DHT22;23776;51.592;7.180;2023-08-30T09:57:16;20.40;99.90
37956;DHT22;23776;51.592;7.180;2023-08-30T09:59:42;21.30;99.90
37956;DHT22;23776;51.592;7.180;2023-08-30T10:02:09;20.30;99.90
37956;DHT22;23776;51.592;7.180;2023-08-30T10:04:38;20.00;99.90
37956;DHT22;23776;51.592;7.180;2023-08-30T10:07:06;19.60;1.00
37956;DHT22;23776;51.592;7.180;2023-08-30T10:09:32;18.90;99.90
37956;DHT22;23776;51.592;7.180;2023-08-30T10:11:58;17.90;1.00
37956;DHT22;23776;51.592;7.180;2023-08-30T10:14:24;17.20;99.90
37956;DHT22;23776;51.592;7.180;2023-08-30T10:16:51;16.80;99.90
37956;DHT22;23776;51.592;7.180;2023-08-30T10:19:25;16.60;99.90
37956;DHT22;23776;51.592;7.180;2023-08-30T10:22:03;16.60;1.00
37956;DHT22;23776;51.592;7.180;2023-08-30T10:24:48;16.50;99.90
37956;DHT22;23776;51.592;7.180;2023-08-30T10:27:16;16.30;1.00
37956;DHT22;23776;51.592;7.180;2023-08-30T10:29:43;16.10;13.00
37956;DHT22;23776;51.592;7.180;2023-08-30T10:32:10;16.00;99.90
37956;DHT22;23776;51.592;7.180;2023-08-30T10:34:36;15.90;99.90
37956;DHT22;23776;51.592;7.180;2023-08-30T10:37:09;15.80;99.90
37956;DHT22;23776;51.592;7.180;2023-08-30T10:39:37;15.80;99.90
37956;DHT22;23776;51.592;7.180;2023-08-30T10:42:13;15.90;99.90
37956;DHT22;23776;51.592;7.180;2023-08-30T10:44:57;15.70;99.90
37956;DHT22;23776;51.592;7.180;2023-08-30T10:47:24;15.70;99.90
37956;DHT22;23776;51.592;7.180;2023-08-30T10:49:58;15.70;1.00
37956;DHT22;23776;51.592;7.180;2023-08-30T10:52:25;15.60;1.00
37956;DHT22;23776;51.592;7.180;2023-08-30T10:54:51;15.60;1.00
37956;DHT22;23776;51.592;7.180;2023-08-30T10:57:24;15.60;1.00
37956;DHT22;23776;51.592;7.180;2023-08-30T11:00:09;15.60;1.00
37956;DHT22;23776;51.592;7.180;2023-08-30T11:02:39;15.70;1.00
37956;DHT22;23776;51.592;7.180;2023-08-30T11:05:08;15.70;1.00
37956;DHT22;23776;51.592;7.180;2023-08-30T11:07:34;15.70;1.00
37956;DHT22;23776;51.592;7.180;2023-08-30T11:10:00;15.70;1.00
37956;DHT22;23776;51.592;7.180;2023-08-30T11:12:25;15.70;1.00
37956;DHT22;23776;51.592;7.180;2023-08-30T11:14:58;15.60;1.00
37956;DHT22;23776;51.592;7.180;2023-08-30T11:17:25;15.70;1.00
37956;DHT22;23776;51.592;7.180;2023-08-30T11:19:56;15.50;1.00
37956;DHT22;23776;51.592;7.180;2023-08-30T11:22:23;15.60;1.00
37956;DHT22;23776;51.592;7.180;2023-08-30T11:24:49;15.60;1.00
37956;DHT22;23776;51.592;7.180;2023-08-30T11:27:17;15.50;1.00
37956;DHT22;23776;51.592;7.180;2023-08-30T11:29:43;15.50;1.00
37956;DHT22;23776;51.592;7.180;2023-08-30T11:32:08;15.50;1.00
37956;DHT22;23776;51.592;7.180;2023-08-30T11:34:34;15.50;1.00
37956;DHT22;23776;51.592;7.180;2023-08-30T11:37:00;15.50;1.00
37956;DHT22;23776;51.592;7.180;2023-08-30T11:39:28;15.30;1.00
37956;DHT22;23776;51.592;7.180;2023-08-30T11:41:54;15.30;1.00
37956;DHT22;23776;51.592;7.180;2023-08-30T11:44:23;15.30;1.00
37956;DHT22;23776;51.592;7.180;2023-08-30T11:46:48;15.30;1.00
37956;DHT22;23776;51.592;7.180;2023-08-30T11:49:15;15.20;1.00
37956;DHT22;23776;51.592;7.180;2023-08-30T11:51:42;15.20;1.00
37956;DHT22;23776;51.592;7.180;2023-08-30T11:54:08;15.20;1.00
37956;DHT22;23776;51.592;7.180;2023-08-30T11:56:34;15.20;1.00
37956;DHT22;23776;51.592;7.180;2023-08-30T11:59:01;15.20;1.00
37956;DHT22;23776;51.592;7.180;2023-08-30T12:01:28;15.20;1.00
37956;DHT22;23776;51.592;7.180;2023-08-30T12:03:54;15.20;1.00
37956;DHT22;23776;51.592;7.180;2023-08-30T12:06:23;15.30;1.00
37956;DHT22;23776;51.592;7.180;2023-08-30T12:08:48;15.40;1.00
37956;DHT22;23776;51.592;7.180;2023-08-30T12:11:22;15.40;1.00
37956;DHT22;23776;51.592;7.180;2023-08-30T12:13:48;15.40;1.00
37956;DHT22;23776;51.592;7.180;2023-08-30T12:16:17;15.60;1.00
37956;DHT22;23776;51.592;7.180;2023-08-30T12:18:43;15.60;1.00
37956;DHT22;23776;51.592;7.180;2023-08-30T12:21:09;15.60;1.00
37956;DHT22;23776;51.592;7.180;2023-08-30T12:23:35;15.50;1.00
37956;DHT22;23776;51.592;7.180;2023-08-30T12:26:03;15.50;1.00
37956;DHT22;23776;51.592;7.180;2023-08-30T12:28:30;15.50;1.00
37956;DHT22;23776;51.592;7.180;2023-08-30T12:30:56;15.60;1.00
37956;DHT22;23776;51.592;7.180;2023-08-30T12:33:22;15.60;1.00
37956;DHT22;23776;51.592;7.180;2023-08-30T12:35:48;15.60;1.00
37956;DHT22;23776;51.592;7.180;2023-08-30T12:38:14;15.70;1.00
37956;DHT22;23776;51.592;7.180;2023-08-30T12:40:46;15.90;1.00
37956;DHT22;23776;51.592;7.180;2023-08-30T12:43:13;15.90;1.00
37956;DHT22;23776;51.592;7.180;2023-08-30T12:45:39;16.00;1.00
37956;DHT22;23776;51.592;7.180;2023-08-30T12:48:07;16.00;1.00
37956;DHT22;23776;51.592;7.180;2023-08-30T12:50:32;16.00;1.00
37956;DHT22;23776;51.592;7.180;2023-08-30T12:52:58;16.00;1.00
37956;DHT22;23776;51.592;7.180;2023-08-30T12:55:24;16.10;1.00
37956;DHT22;23776;51.592;7.180;2023-08-30T12:57:49;16.10;1.00
37956;DHT22;23776;51.592;7.180;2023-08-30T13:00:15;16.10;1.00
37956;DHT22;23776;51.592;7.180;2023-08-30T13:02:41;16.00;1.00
37956;DHT22;23776;51.592;7.180;2023-08-30T13:05:06;15.90;1.00
37956;DHT22;23776;51.592;7.180;2023-08-30T13:07:32;15.90;1.00
37956;DHT22;23776;51.592;7.180;2023-08-30T13:09:58;15.90;1.00
37956;DHT22;23776;51.592;7.180;2023-08-30T13:12:24;15.90;1.00
37956;DHT22;23776;51.592;7.180;2023-08-30T13:14:49;15.90;1.00
37956;DHT22;23776;51.592;7.180;2023-08-30T13:17:15;15.80;1.00
37956;DHT22;23776;51.592;7.180;2023-08-30T13:19:45;15.80;1.00
37956;DHT22;23776;51.592;7.180;2023-08-30T13:22:11;15.70;1.00
37956;DHT22;23776;51.592;7.180;2023-08-30T13:24:36;15.60;1.00
37956;DHT22;23776;51.592;7.180;2023-08-30T13:27:03;15.50;1.00
37956;DHT22;23776;51.592;7.180;2023-08-30T13:29:29;15.60;1.00
37956;DHT22;23776;51.592;7.180;2023-08-30T13:31:55;15.60;1.00
37956;DHT22;23776;51.592;7.180;2023-08-30T13:34:21;15.70;1.00
37956;DHT22;23776;51.592;7.180;2023-08-30T13:36:47;15.60;1.00
37956;DHT22;23776;51.592;7.180;2023-08-30T13:39:12;15.50;1.00
37956;DHT22;23776;51.592;7.180;2023-08-30T13:41:38;15.50;1.00
37956;DHT22;23776;51.592;7.180;2023-08-30T13:44:04;15.50;1.00
37956;DHT22;23776;51.592;7.180;2023-08-30T13:46:30;15.60;1.00
37956;DHT22;23776;51.592;7.180;2023-08-30T13:48:56;15.30;1.00
37956;DHT22;23776;51.592;7.180;2023-08-30T13:51:22;15.50;1.00
37956;DHT22;23776;51.592;7.180;2023-08-30T13:53:49;15.50;1.00
37956;DHT22;23776;51.592;7.180;2023-08-30T13:56:15;15.50;1.00
37956;DHT22;23776;51.592;7.180;2023-08-30T13:58:41;15.40;1.00
37956;DHT22;23776;51.592;7.180;2023-08-30T14:01:07;15.30;1.00
37956;DHT22;23776;51.592;7.180;2023-08-30T14:03:33;15.20;1.00
37956;DHT22;23776;51.592;7.180;2023-08-30T14:05:58;15.30;1.00
37956;DHT22;23776;51.592;7.180;2023-08-30T14:08:24;15.30;1.00
37956;DHT22;23776;51.592;7.180;2023-08-30T14:10:50;15.30;1.00
37956;DHT22;23776;51.592;7.180;2023-08-30T14:13:16;15.30;1.00
37956;DHT22;23776;51.592;7.180;2023-08-30T14:15:42;15.30;1.00
37956;DHT22;23776;51.592;7.180;2023-08-30T14:18:08;15.30;1.00
37956;DHT22;23776;51.592;7.180;2023-08-30T14:20:34;15.30;1.00
37956;DHT22;23776;51.592;7.180;2023-08-30T14:22:59;15.30;1.00
37956;DHT22;23776;51.592;7.180;2023-08-30T14:25:25;15.30;1.00
37956;DHT22;23776;51.592;7.180;2023-08-30T14:27:50;15.30;1.00
37956;DHT22;23776;51.592;7.180;2023-08-30T14:30:16;15.40;1.00
37956;DHT22;23776;51.592;7.180;2023-08-30T14:32:42;15.40;1.00
37956;DHT22;23776;51.592;7.180;2023-08-30T14:35:08;15.40;1.00
37956;DHT22;23776;51.592;7.180;2023-08-30T14:37:34;15.40;1.00
37956;DHT22;23776;51.592;7.180;2023-08-30T14:40:03;15.30;1.00
37956;DHT22;23776;51.592;7.180;2023-08-30T14:42:30;15.30;1.00
37956;DHT22;23776;51.592;7.180;2023-08-30T14:44:56;15.20;1.00
37956;DHT22;23776;51.592;7.180;2023-08-30T14:47:21;15.30;1.00
37956;DHT22;23776;51.592;7.180;2023-08-30T14:49:47;15.30;1.00
37956;DHT22;23776;51.592;7.180;2023-08-30T14:52:14;15.20;1.00
37956;DHT22;23776;51.592;7.180;2023-08-30T14:54:39;15.20;1.00
37956;DHT22;23776;51.592;7.180;2023-08-30T14:57:06;15.20;1.00
37956;DHT22;23776;51.592;7.180;2023-08-30T14:59:32;15.10;1.00
37956;DHT22;23776;51.592;7.180;2023-08-30T15:01:58;15.00;1.00
37956;DHT22;23776;51.592;7.180;2023-08-30T15:04:24;14.90;1.00
37956;DHT22;23776;51.592;7.180;2023-08-30T15:06:50;14.90;1.00
37956;DHT22;23776;51.592;7.180;2023-08-30T15:09:17;14.90;1.00
37956;DHT22;23776;51.592;7.180;2023-08-30T15:11:43;14.80;1.00
37956;DHT22;23776;51.592;7.180;2023-08-30T15:14:08;14.80;1.00
37956;DHT22;23776;51.592;7.180;2023-08-30T15:16:34;14.80;1.00
37956;DHT22;23776;51.592;7.180;2023-08-30T15:19:00;14.90;1.00
37956;DHT22;23776;51.592;7.180;2023-08-30T15:21:26;14.80;1.00
37956;DHT22;23776;51.592;7.180;2023-08-30T15:23:51;14.80;1.00
37956;DHT22;23776;51.592;7.180;2023-08-30T15:26:17;14.80;1.00
37956;DHT22;23776;51.592;7.180;2023-08-30T15:28:49;14.80;1.00
37956;DHT22;23776;51.592;7.180;2023-08-30T15:31:16;14.70;1.00
37956;DHT22;23776;51.592;7.180;2023-08-30T15:33:43;14.70;1.00
37956;DHT22;23776;51.592;7.180;2023-08-30T15:36:09;14.70;1.00
37956;DHT22;23776;51.592;7.180;2023-08-30T15:38:34;14.60;1.00
37956;DHT22;23776;51.592;7.180;2023-08-30T15:41:06;14.60;1.00
37956;DHT22;23776;51.592;7.180;2023-08-30T15:43:33;14.60;1.00